Chautauqua County-Jamestown Airport


Codes: KJHW/JHW
Name: Chautauqua County-Jamestown Airport
City: Jamestown
Country: United States
Elevation: 1723 ft.
Wikipedia:

Photos at Chautauqua County-Jamestown Airport


   Photos courtesy of SpottingLog. You can add your own sightings and photos by signing up for a free trial today.



No photos found.

Weather at Chautauqua County-Jamestown Airport


Time (UTC)DescriptionTempratureWindCloud coverageVisibilityPressureHumidity
17-Jun-2024 06:00Clear Sky20°C7 mph, S0%10000m1019hPa77%
17-Jun-2024 09:00Clear Sky18°C7 mph, S9%10000m1019hPa84%
17-Jun-2024 12:00Scattered Clouds19°C7 mph, S35%10000m1019hPa86%
17-Jun-2024 15:00Broken Clouds24°C9 mph, SW78%10000m1019hPa75%
17-Jun-2024 18:00Light Rain27°C9 mph, W72%10000m1018hPa79%
17-Jun-2024 21:00Light Rain27°C9 mph, W8%10000m1018hPa79%
18-Jun-2024 00:00Light Rain24°C4 mph, W7%10000m1019hPa88%
18-Jun-2024 03:00Clear Sky21°C4 mph, SW3%10000m1020hPa86%
18-Jun-2024 06:00Light Rain19°C4 mph, S3%10000m1020hPa93%
18-Jun-2024 09:00Few Clouds19°C4 mph, S14%10000m1021hPa95%
18-Jun-2024 12:00Light Rain21°C4 mph, S49%10000m1022hPa94%
18-Jun-2024 15:00Light Rain26°C4 mph, SW99%10000m1022hPa87%
18-Jun-2024 18:00Light Rain29°C7 mph, SW100%10000m1022hPa67%
18-Jun-2024 21:00Light Rain29°C4 mph, W100%10000m1021hPa77%
19-Jun-2024 00:00Light Rain25°C0 mph, W100%10000m1022hPa84%
19-Jun-2024 03:00Light Rain22°C4 mph, S100%10000m1023hPa91%
19-Jun-2024 06:00Light Rain20°C4 mph, S100%10000m1024hPa94%
19-Jun-2024 09:00Overcast Clouds20°C7 mph, SE100%10000m1024hPa94%
19-Jun-2024 12:00Light Rain21°C7 mph, S99%10000m1026hPa95%
19-Jun-2024 15:00Overcast Clouds25°C7 mph, SW100%10000m1026hPa81%
19-Jun-2024 18:00Light Rain28°C7 mph, SW100%10000m1025hPa76%
19-Jun-2024 21:00Light Rain29°C7 mph, W98%10000m1024hPa77%
20-Jun-2024 00:00Light Rain25°C0 mph, NW99%10000m1025hPa84%
20-Jun-2024 03:00Overcast Clouds22°C2 mph, SE95%10000m1025hPa87%
20-Jun-2024 06:00Light Rain21°C2 mph, SW92%10000m1026hPa91%
20-Jun-2024 09:00Overcast Clouds20°C4 mph, SE100%10000m1026hPa94%
20-Jun-2024 12:00Overcast Clouds22°C2 mph, S100%10000m1027hPa92%
20-Jun-2024 15:00Light Rain26°C2 mph, NW92%10000m1026hPa85%
20-Jun-2024 18:00Light Rain28°C4 mph, N68%10000m1026hPa67%
20-Jun-2024 21:00Light Rain29°C7 mph, N44%10000m1024hPa72%
21-Jun-2024 00:00Light Rain24°C4 mph, N66%10000m1025hPa90%
21-Jun-2024 03:00Broken Clouds21°C4 mph, N53%10000m1025hPa90%
21-Jun-2024 06:00Broken Clouds19°C2 mph, E72%10000m1025hPa91%
21-Jun-2024 09:00Overcast Clouds19°C2 mph, SE100%10000m1024hPa91%
21-Jun-2024 12:00Broken Clouds22°C2 mph, SE81%10000m1025hPa89%
21-Jun-2024 15:00Light Rain25°C2 mph, W14%10000m1023hPa83%
21-Jun-2024 18:00Light Rain28°C4 mph, W12%10000m1022hPa69%
21-Jun-2024 21:00Light Rain28°C4 mph, NW0%10000m1020hPa74%
22-Jun-2024 00:00Light Rain24°C4 mph, N1%10000m1020hPa91%
22-Jun-2024 03:00Light Rain20°C0 mph, E7%10000m1020hPa92%